Latest Weather Observations for Oodnadatta

IDS60801

Issued at 5:31 pm CST Sunday 24 September 2017 (issued every 30 minutes, with the page automatically refreshed every 10 minutes)

About weather observations | Map of weather stations | Latest weather observations for SA | Other Formats
Station Details ID: 017043 Name: OODNADATTA AIRPORT Lat: -27.56 Lon: 135.45 Height: 116.5 m
Data from the previous 72 hours. | See also: Recent months at Oodnadatta
Date/Time
CST
Temp
°C
App
Temp
°C
Dew
Point
°C
Rel
Hum
%
Delta-T
°C
Wind Press
QNH
hPa
Press
MSL
hPa
Rain since
9am
mm
Dir  Spd
km/h
Gust
km/h
Spd
kts
Gust
kts
24/05:30pm 30.2 25.9 0.7 15 14.4 NW 13 17 7 9 1006.6 1006.3 0.0
24/05:00pm 30.0 26.4 0.6 15 14.3 NNW 9 15 5 8 1006.4 1006.1 0.0
24/04:30pm 30.0 26.0 0.6 15 14.3 NNW 11 22 6 12 1006.2 1005.9 0.0
24/04:00pm 30.0 26.4 0.6 15 14.3 N 9 19 5 10 1006.2 1005.9 0.0
24/03:30pm 29.3 25.0 0.9 16 13.8 E 13 19 7 10 1006.5 1006.2 0.0
24/03:00pm 28.6 24.2 0.3 16 13.6 NNE 13 20 7 11 1007.0 1006.7 0.0
24/02:30pm 28.0 23.9 -0.1 16 13.3 ENE 11 22 6 12 1007.7 1007.4 0.0
24/02:00pm 27.6 24.0 0.4 17 12.9 ESE 9 17 5 9 1008.4 1008.1 0.0
24/01:30pm 27.0 23.8 0.7 18 12.5 WSW 7 13 4 7 1009.1 1008.8 0.0
24/01:00pm 26.9 22.5 0.6 18 12.5 S 13 26 7 14 1009.6 1009.3 0.0
24/12:30pm 25.8 22.2 0.5 19 11.9 S 9 15 5 8 1010.1 1009.9 0.0
24/12:00pm 25.7 21.4 1.1 20 11.7 SE 13 20 7 11 1010.7 1010.4 0.0
24/11:30am 24.4 20.1 1.3 22 10.9 S 13 20 7 11 1011.2 1010.9 0.0
24/11:00am 23.5 18.7 2.4 25 10.1 SE 17 22 9 12 1011.5 1011.2 0.0
24/10:30am 22.3 17.4 1.9 26 9.6 SSE 17 24 9 13 1011.9 1011.6 0.0
24/10:00am 21.1 16.4 2.9 30 8.6 SSE 17 24 9 13 1012.1 1011.8 0.0
24/09:30am 20.5 15.7 2.8 31 8.3 SE 17 24 9 13 1012.4 1012.1 0.0
24/09:00am 19.6 14.3 2.9 33 7.8 SSE 20 28 11 15 1012.5 1012.2 0.0
24/08:30am 18.8 12.7 3.0 35 7.4 SSE 24 28 13 15 1012.5 1012.2 0.0
24/08:00am 17.7 10.8 2.8 37 6.9 S 28 32 15 17 1011.9 1011.6 0.0
24/07:30am 16.9 11.1 2.1 37 6.7 S 22 30 12 16 1011.5 1011.2 0.0
24/07:00am 16.1 9.7 1.0 36 6.6 S 24 32 13 17 1011.0 1010.7 0.0
24/06:30am 15.7 10.1 -0.1 34 6.8 SSW 19 24 10 13 1010.5 1010.2 0.0
24/06:00am 16.1 11.3 0.3 34 6.8 S 15 20 8 11 1009.9 1009.7 0.0
24/05:30am 15.6 11.7 1.0 37 6.4 S 11 13 6 7 1009.3 1009.0 0.0
24/05:00am 16.2 11.9 1.1 36 6.6 S 13 17 7 9 1008.9 1008.6 0.0
24/04:30am 16.7 12.4 1.2 35 6.9 S 13 15 7 8 1008.5 1008.2 0.0
24/04:00am 17.9 13.0 1.8 34 7.3 S 17 20 9 11 1008.1 1007.8 0.0
24/03:30am 18.2 14.1 2.1 34 7.4 S 13 15 7 8 1007.9 1007.6 0.0
24/03:00am 19.4 15.0 2.7 33 7.8 S 15 17 8 9 1007.8 1007.5 0.0
24/02:30am 20.3 15.1 2.6 31 8.3 SSW 19 24 10 13 1007.5 1007.2 0.0
24/02:00am 19.6 15.7 3.3 34 7.7 S 13 19 7 10 1007.4 1007.1 0.0
24/01:30am 19.6 18.0 2.5 32 8.0 CALM 0 0 0 0 1006.9 1006.6 0.0
24/01:00am 19.6 17.9 2.0 31 8.1 CALM 0 0 0 0 1006.9 1006.6 0.0
24/12:30am 20.1 18.4 2.0 30 8.4 CALM 0 0 0 0 1007.0 1006.7 0.0
24/12:00am 20.5 18.8 1.9 29 8.6 CALM 0 0 0 0 1007.1 1006.8 0.0
 
Date/Time
CST
Temp
°C
App
Temp
°C
Dew
Point
°C
Rel
Hum
%
Delta-T
°C
Wind Press
QNH
hPa
Press
MSL
hPa
Rain since
9am
mm
Dir  Spd
km/h
Gust
km/h
Spd
kts
Gust
kts
23/11:30pm 21.2 19.4 1.5 27 9.1 CALM 0 0 0 0 1007.0 1006.7 0.0
23/11:00pm 22.3 20.7 2.4 27 9.4 CALM 0 0 0 0 1007.0 1006.7 0.0
23/10:30pm 22.5 19.9 3.1 28 9.4 ENE 6 6 3 3 1007.2 1006.9 0.0
23/10:00pm 23.7 21.5 3.6 27 9.8 W 4 7 2 4 1007.2 1006.9 0.0
23/09:30pm 25.2 22.6 4.3 26 10.5 WSW 7 7 4 4 1007.1 1006.8 0.0
23/09:00pm 26.3 23.8 4.7 25 11.0 SW 7 7 4 4 1006.9 1006.6 0.0
23/08:30pm 25.9 22.6 4.4 25 10.9 SSW 11 11 6 6 1006.5 1006.2 0.0
23/08:00pm 27.4 23.7 4.5 23 11.7 SSW 13 17 7 9 1006.1 1005.8 0.0
23/07:30pm 28.6 24.2 4.8 22 12.3 SW 17 20 9 11 1005.8 1005.5 0.0
23/07:00pm 29.4 25.5 5.5 22 12.6 SW 15 17 8 9 1005.6 1005.3 0.0
23/06:30pm 30.4 26.2 5.6 21 13.2 SSW 17 22 9 12 1005.2 1004.9 0.0
23/06:00pm 31.4 26.1 5.0 19 14.0 SW 22 28 12 15 1005.1 1004.8 0.0
23/05:30pm 32.2 27.4 4.9 18 14.5 WSW 19 26 10 14 1004.9 1004.6 0.0
23/05:00pm 32.5 27.8 5.1 18 14.6 WSW 19 26 10 14 1004.8 1004.5 0.0
23/04:30pm 32.9 29.0 5.5 18 14.7 W 15 24 8 13 1004.9 1004.6 0.0
23/04:00pm 32.6 27.9 5.2 18 14.6 W 19 28 10 15 1005.1 1004.8 0.0
23/03:30pm 32.5 28.9 5.1 18 14.6 WSW 13 26 7 14 1005.2 1004.9 0.0
23/03:00pm 32.8 28.5 5.4 18 14.7 WSW 17 28 9 15 1005.4 1005.1 0.0
23/02:30pm 32.4 28.2 5.8 19 14.3 SW 17 28 9 15 1005.7 1005.4 0.0
23/02:00pm 31.9 27.2 6.2 20 13.9 SW 20 33 11 18 1005.7 1005.4 0.0
23/01:30pm 32.5 27.6 6.7 20 14.1 SW 22 32 12 17 1005.8 1005.5 0.0
23/01:00pm 31.7 25.6 6.7 21 13.6 SW 28 35 15 19 1006.3 1006.0 0.0
23/12:30pm 31.1 24.7 6.9 22 13.2 SW 30 43 16 23 1006.6 1006.3 0.0
23/12:00pm 30.6 24.3 5.8 21 13.2 SSW 28 39 15 21 1006.8 1006.5 0.0
23/11:30am 31.4 23.9 3.4 17 14.4 SW 32 39 17 21 1007.1 1006.8 0.0
23/11:00am 30.7 24.0 3.7 18 13.9 SSW 28 41 15 22 1007.0 1006.7 0.0
23/10:30am 30.5 23.4 3.5 18 13.8 SW 30 41 16 22 1006.8 1006.5 0.0
23/10:00am 30.2 22.7 3.3 18 13.7 SW 32 39 17 21 1007.0 1006.7 0.0
23/09:30am 30.5 22.4 0.0 14 14.7 SW 32 41 17 22 1006.7 1006.4 0.0
23/09:00am 30.5 21.8 -3.3 11 15.4 WSW 33 44 18 24 1006.5 1006.2 0.0
23/08:49am 30.0 21.8 -3.6 11 15.1 WSW 30 44 16 24 1006.5 1006.2 0.0
23/08:30am 28.2 22.1 -3.9 12 14.2 WNW 19 26 10 14 1006.3 1006.0 0.0
23/08:00am 24.6 18.0 -3.7 15 12.2 NW 22 28 12 15 1005.5 1005.2 0.0
23/07:30am 22.7 16.0 -4.4 16 11.4 NW 22 30 12 16 1005.1 1004.8 0.0
23/07:00am 20.6 14.3 -3.8 19 10.1 NW 20 24 11 13 1004.6 1004.3 0.0
23/06:30am 19.2 13.1 -4.3 20 9.5 NW 19 20 10 11 1004.3 1004.0 0.0
23/06:00am 20.8 14.5 -4.4 18 10.4 NW 20 22 11 12 1003.8 1003.5 0.0
23/05:30am 20.3 14.2 -4.0 19 10.0 NW 19 22 10 12 1003.6 1003.3 0.0
23/05:00am 19.3 12.9 -4.9 19 9.7 NNW 20 24 11 13 1003.3 1003.0 0.0
23/04:30am 19.9 13.6 -4.4 19 9.9 NW 20 24 11 13 1003.1 1002.8 0.0
23/04:00am 20.0 14.2 -5.0 18 10.0 NW 17 20 9 11 1003.2 1002.9 0.0
23/03:30am 20.6 14.4 -4.5 18 10.3 NW 19 20 10 11 1003.3 1003.0 0.0
23/03:00am 20.1 14.3 -4.9 18 10.1 NW 17 19 9 10 1003.6 1003.3 0.0
23/02:30am 21.1 15.3 -4.9 17 10.6 NW 17 19 9 10 1003.7 1003.4 0.0
23/02:00am 21.7 15.5 -4.4 17 10.8 NW 19 20 10 11 1004.1 1003.8 0.0
23/01:30am 21.2 15.8 -4.8 17 10.7 NW 15 17 8 9 1004.3 1004.0 0.0
23/01:00am 22.1 17.0 -4.9 16 11.1 NW 13 17 7 9 1004.5 1004.2 0.0
23/12:30am 22.5 17.0 -5.4 15 11.4 NW 15 17 8 9 1004.5 1004.2 0.0
23/12:00am 23.8 18.4 -4.4 15 11.9 NW 15 19 8 10 1004.8 1004.5 0.0
 
Date/Time
CST
Temp
°C
App
Temp
°C
Dew
Point
°C
Rel
Hum
%
Delta-T
°C
Wind Press
QNH
hPa
Press
MSL
hPa
Rain since
9am
mm
Dir  Spd
km/h
Gust
km/h
Spd
kts
Gust
kts
22/11:30pm 24.8 19.3 -5.5 13 12.7 NNW 15 19 8 10 1004.8 1004.5 0.0
22/11:00pm 25.1 19.2 -5.2 13 12.7 NNW 17 19 9 10 1004.8 1004.5 0.0
22/10:30pm 27.6 21.5 -4.3 12 14.0 NNW 19 20 10 11 1005.0 1004.7 0.0
22/10:00pm 28.2 22.1 -3.9 12 14.2 NNW 19 22 10 12 1005.2 1004.9 0.0
22/09:30pm 27.5 22.2 -3.3 13 13.7 NNW 15 19 8 10 1005.3 1005.0 0.0
22/09:00pm 29.7 24.0 -3.9 11 15.1 N 17 20 9 11 1005.2 1004.9 0.0
22/08:30pm 28.8 23.5 -3.4 12 14.5 NNW 15 17 8 9 1005.1 1004.8 0.0
22/08:00pm 30.0 25.1 -3.6 11 15.1 NNW 13 15 7 8 1004.8 1004.5 0.0
22/07:30pm 32.0 27.5 -3.4 10 16.3 NW 11 13 6 7 1004.6 1004.3 0.0
22/07:00pm 32.5 27.6 -3.0 10 16.5 WNW 13 15 7 8 1004.3 1004.0 0.0
22/06:30pm 34.3 29.1 -3.1 9 17.6 WNW 15 20 8 11 1004.0 1003.7 0.0
22/06:00pm 36.5 29.6 -3.0 8 18.9 WNW 24 33 13 18 1003.9 1003.6 0.0
22/05:30pm 37.5 30.6 -2.3 8 19.4 NW 24 32 13 17 1003.8 1003.5 0.0
22/05:00pm 38.0 29.7 -1.9 8 19.6 WNW 32 44 17 24 1003.8 1003.5 0.0
22/04:30pm 38.4 30.1 -1.6 8 19.8 WNW 32 48 17 26 1003.8 1003.5 0.0
22/04:00pm 38.6 30.1 -3.3 7 20.2 WNW 32 59 17 32 1004.0 1003.7 0.0
22/03:58pm 38.8 30.3 -3.2 7 20.3 WNW 32 59 17 32 1003.8 1003.5 0.0
22/03:46pm 39.2 30.7 -2.9 7 20.5 NW 32 50 17 27 1003.9 1003.6 0.0
22/03:30pm 39.1 30.6 -2.9 7 20.5 WNW 32 44 17 24 1004.0 1003.7 0.0
22/03:12pm 39.2 31.5 -2.9 7 20.5 WNW 28 50 15 27 1004.2 1003.9 0.0
22/03:00pm 39.2 31.7 -1.1 8 20.2 WNW 28 46 15 25 1004.3 1004.0 0.0
22/02:53pm 38.8 31.3 -1.3 8 20.0 NW 28 46 15 25 1004.4 1004.1 0.0
22/02:30pm 39.5 32.1 -0.8 8 20.4 NW 28 39 15 21 1004.6 1004.3 0.0
22/02:08pm 39.6 31.8 -0.8 8 20.4 NW 30 48 16 26 1004.9 1004.6 0.0
22/02:00pm 38.7 30.8 -1.4 8 19.9 WNW 30 39 16 21 1005.2 1004.9 0.0
22/01:30pm 37.5 32.0 -2.3 8 19.4 NW 17 28 9 15 1005.7 1005.4 0.0
22/01:00pm 38.2 32.2 -1.8 8 19.7 NW 20 33 11 18 1006.2 1005.9 0.0
22/12:30pm 37.2 32.0 -2.5 8 19.3 NW 15 28 8 15 1006.6 1006.3 0.0
22/12:00pm 36.6 31.6 -1.4 9 18.7 W 15 24 8 13 1007.0 1006.7 0.0
22/11:30am 36.4 31.4 -1.5 9 18.6 NW 15 24 8 13 1007.4 1007.1 0.0
22/11:00am 35.2 30.4 -2.4 9 18.0 NW 13 20 7 11 1007.7 1007.4 0.0
22/10:30am 34.5 29.8 -1.5 10 17.4 N 13 17 7 9 1007.8 1007.5 0.0
22/10:00am 32.0 28.6 -2.1 11 16.0 NW 6 11 3 6 1008.3 1008.0 0.0
22/09:30am 29.7 25.6 -2.7 12 14.8 W 9 15 5 8 1008.7 1008.4 0.0
22/09:00am 26.4 22.0 -2.3 15 12.9 WSW 11 17 6 9 1008.6 1008.3 0.0
22/08:30am 24.0 20.8 -3.3 16 11.8 NNW 4 13 2 7 1008.4 1008.1 0.0
22/08:00am 22.2 19.9 -2.5 19 10.6 CALM 0 0 0 0 1008.2 1007.9 0.0
22/07:30am 18.2 15.3 -3.8 22 8.9 SW 2 7 1 4 1008.2 1007.9 0.0
22/07:00am 15.9 12.0 -4.6 24 8.0 SW 7 11 4 6 1008.1 1007.8 0.0
22/06:30am 16.0 10.9 -5.1 23 8.1 NW 13 13 7 7 1007.9 1007.6 0.0
22/06:00am 16.8 12.2 -4.4 23 8.4 NW 11 13 6 7 1007.8 1007.5 0.0
22/05:30am 16.4 12.1 -4.8 23 8.3 NNW 9 13 5 7 1007.6 1007.3 0.0
22/05:00am 16.5 12.7 -4.1 24 8.1 NW 7 9 4 5 1007.2 1006.9 0.0
22/04:30am 16.7 13.8 -3.9 24 8.2 WSW 2 9 1 5 1007.2 1006.9 0.0
22/04:00am 17.1 13.8 -4.8 22 8.6 NNW 4 9 2 5 1006.9 1006.6 0.0
22/03:30am 18.9 15.1 -3.9 21 9.3 N 7 9 4 5 1006.8 1006.5 0.0
22/03:00am 20.7 16.6 -3.0 20 10.0 NNW 9 11 5 6 1007.0 1006.7 0.0
22/02:30am 19.9 15.8 -3.0 21 9.6 NW 9 11 5 6 1007.1 1006.8 0.0
22/02:00am 20.0 16.3 -3.0 21 9.6 WSW 7 9 4 5 1007.5 1007.2 0.0
22/01:30am 19.7 15.9 -3.9 20 9.7 SW 7 9 4 5 1007.5 1007.2 0.0
22/01:00am 19.6 15.4 -3.9 20 9.6 S 9 9 5 5 1007.8 1007.5 0.0
22/12:30am 21.1 18.3 -3.4 19 10.3 WNW 2 7 1 4 1007.7 1007.4 0.0
22/12:00am 22.3 18.9 -2.4 19 10.7 W 6 7 3 4 1007.6 1007.3 0.0
 
Date/Time
CST
Temp
°C
App
Temp
°C
Dew
Point
°C
Rel
Hum
%
Delta-T
°C
Wind Press
QNH
hPa
Press
MSL
hPa
Rain since
9am
mm
Dir  Spd
km/h
Gust
km/h
Spd
kts
Gust
kts
21/11:30pm 21.6 18.0 -2.3 20 10.3 WSW 7 11 4 6 1007.6 1007.3 0.0
21/11:00pm 22.1 19.2 -4.1 17 10.9 NE 2 6 1 3 1007.6 1007.3 0.0
21/10:30pm 24.9 20.7 -3.5 15 12.3 S 9 13 5 7 1007.4 1007.1 0.0
21/10:00pm 25.9 23.6 -2.7 15 12.7 CALM 0 0 0 0 1007.6 1007.3 0.0
21/09:30pm 27.0 24.7 -2.7 14 13.3 CALM 0 0 0 0 1007.7 1007.4 0.0
21/09:00pm 27.9 25.1 -3.0 13 13.9 S 2 6 1 3 1007.7 1007.4 0.0
21/08:30pm 28.3 24.6 -2.7 13 14.0 SSW 7 7 4 4 1007.4 1007.1 0.0
21/08:00pm 29.1 25.0 -3.2 12 14.6 SW 9 13 5 7 1007.0 1006.7 0.0
21/07:30pm 30.9 25.7 -3.0 11 15.6 SW 15 17 8 9 1006.7 1006.4 0.0
21/07:00pm 32.6 27.0 -2.9 10 16.5 WSW 17 20 9 11 1006.4 1006.1 0.0
21/06:30pm 33.8 27.2 -3.5 9 17.4 WSW 22 28 12 15 1006.0 1005.7 0.0
21/06:00pm 35.4 29.1 -3.8 8 18.4 WSW 20 26 11 14 1005.6 1005.3 0.0

Other Formats:

Comma delimited format used in spreadsheet applications
http://www.bom.gov.au/fwo/IDS60801/IDS60801.94476.axf

JavaScript Object Notation format (JSON) in row-major order
http://www.bom.gov.au/fwo/IDS60801/IDS60801.94476.json